sensor_id;sensor_type;location;lat;lon;timestamp;temperature;humidity
66140;DHT22;52945;51.908;8.364;2023-08-06T00:00:00;18.20;76.90
66140;DHT22;52945;51.908;8.364;2023-08-06T00:03:01;18.20;76.90
66140;DHT22;52945;51.908;8.364;2023-08-06T00:06:01;18.20;76.80
66140;DHT22;52945;51.908;8.364;2023-08-06T00:09:02;18.20;76.40
66140;DHT22;52945;51.908;8.364;2023-08-06T00:12:03;18.20;76.80
66140;DHT22;52945;51.908;8.364;2023-08-06T00:15:03;18.20;77.10
66140;DHT22;52945;51.908;8.364;2023-08-06T00:18:04;18.20;77.10
66140;DHT22;52945;51.908;8.364;2023-08-06T00:21:05;18.20;77.50
66140;DHT22;52945;51.908;8.364;2023-08-06T00:24:05;18.20;77.00
66140;DHT22;52945;51.908;8.364;2023-08-06T00:27:06;18.20;77.40
66140;DHT22;52945;51.908;8.364;2023-08-06T00:30:07;18.20;77.00
66140;DHT22;52945;51.908;8.364;2023-08-06T00:33:07;18.20;77.20
66140;DHT22;52945;51.908;8.364;2023-08-06T00:36:08;18.10;76.90
66140;DHT22;52945;51.908;8.364;2023-08-06T00:39:08;18.10;76.40
66140;DHT22;52945;51.908;8.364;2023-08-06T00:42:10;18.10;76.80
66140;DHT22;52945;51.908;8.364;2023-08-06T00:45:10;18.10;77.40
66140;DHT22;52945;51.908;8.364;2023-08-06T00:48:11;18.20;77.60
66140;DHT22;52945;51.908;8.364;2023-08-06T00:51:11;18.20;77.30
66140;DHT22;52945;51.908;8.364;2023-08-06T00:54:12;18.20;77.30
66140;DHT22;52945;51.908;8.364;2023-08-06T00:57:14;18.10;77.10
66140;DHT22;52945;51.908;8.364;2023-08-06T01:00:15;18.10;76.80
66140;DHT22;52945;51.908;8.364;2023-08-06T01:03:15;18.00;76.70
66140;DHT22;52945;51.908;8.364;2023-08-06T01:06:19;18.00;77.40
66140;DHT22;52945;51.908;8.364;2023-08-06T01:09:45;18.10;77.20
66140;DHT22;52945;51.908;8.364;2023-08-06T01:16:09;18.00;76.80
66140;DHT22;52945;51.908;8.364;2023-08-06T01:19:17;18.00;77.00
66140;DHT22;52945;51.908;8.364;2023-08-06T01:22:18;18.00;76.90
66140;DHT22;52945;51.908;8.364;2023-08-06T01:25:19;18.00;76.80
66140;DHT22;52945;51.908;8.364;2023-08-06T01:31:48;18.00;77.20
66140;DHT22;52945;51.908;8.364;2023-08-06T01:34:51;18.00;77.30
66140;DHT22;52945;51.908;8.364;2023-08-06T01:37:52;18.00;77.20
66140;DHT22;52945;51.908;8.364;2023-08-06T01:40:53;18.00;77.40
66140;DHT22;52945;51.908;8.364;2023-08-06T01:43:54;18.00;77.20
66140;DHT22;52945;51.908;8.364;2023-08-06T01:46:54;18.00;77.10
66140;DHT22;52945;51.908;8.364;2023-08-06T01:49:55;18.00;77.20
66140;DHT22;52945;51.908;8.364;2023-08-06T01:52:55;18.00;77.20
66140;DHT22;52945;51.908;8.364;2023-08-06T01:55:56;17.90;77.20
66140;DHT22;52945;51.908;8.364;2023-08-06T01:58:56;17.90;76.90
66140;DHT22;52945;51.908;8.364;2023-08-06T02:01:57;17.90;77.10
66140;DHT22;52945;51.908;8.364;2023-08-06T02:04:57;17.80;76.80
66140;DHT22;52945;51.908;8.364;2023-08-06T02:07:58;17.80;76.80
66140;DHT22;52945;51.908;8.364;2023-08-06T02:10:59;17.90;77.50
66140;DHT22;52945;51.908;8.364;2023-08-06T02:13:59;17.90;77.60
66140;DHT22;52945;51.908;8.364;2023-08-06T02:17:00;17.80;77.40
66140;DHT22;52945;51.908;8.364;2023-08-06T02:20:00;17.80;77.20
66140;DHT22;52945;51.908;8.364;2023-08-06T02:23:01;17.80;77.40
66140;DHT22;52945;51.908;8.364;2023-08-06T02:26:02;17.80;77.20
66140;DHT22;52945;51.908;8.364;2023-08-06T02:29:03;17.80;76.90
66140;DHT22;52945;51.908;8.364;2023-08-06T02:32:04;17.80;77.10
66140;DHT22;52945;51.908;8.364;2023-08-06T02:35:05;17.80;77.30
66140;DHT22;52945;51.908;8.364;2023-08-06T02:38:06;17.80;77.40
66140;DHT22;52945;51.908;8.364;2023-08-06T02:41:06;17.70;77.30
66140;DHT22;52945;51.908;8.364;2023-08-06T02:44:07;17.70;77.70
66140;DHT22;52945;51.908;8.364;2023-08-06T02:47:07;17.80;77.40
66140;DHT22;52945;51.908;8.364;2023-08-06T02:50:08;17.70;77.50
66140;DHT22;52945;51.908;8.364;2023-08-06T02:53:09;17.70;77.60
66140;DHT22;52945;51.908;8.364;2023-08-06T02:56:09;17.70;77.50
66140;DHT22;52945;51.908;8.364;2023-08-06T02:59:10;17.70;77.50
66140;DHT22;52945;51.908;8.364;2023-08-06T03:02:10;17.80;77.40
66140;DHT22;52945;51.908;8.364;2023-08-06T03:05:11;17.70;77.40
66140;DHT22;52945;51.908;8.364;2023-08-06T03:08:11;17.70;77.40
66140;DHT22;52945;51.908;8.364;2023-08-06T03:11:12;17.70;77.40
66140;DHT22;52945;51.908;8.364;2023-08-06T03:14:12;17.70;76.90
66140;DHT22;52945;51.908;8.364;2023-08-06T03:17:13;17.70;76.90
66140;DHT22;52945;51.908;8.364;2023-08-06T03:20:15;17.70;76.90
66140;DHT22;52945;51.908;8.364;2023-08-06T03:23:15;17.70;76.80
66140;DHT22;52945;51.908;8.364;2023-08-06T03:26:16;17.70;77.00
66140;DHT22;52945;51.908;8.364;2023-08-06T03:29:16;17.70;77.10
66140;DHT22;52945;51.908;8.364;2023-08-06T03:32:17;17.60;76.90
66140;DHT22;52945;51.908;8.364;2023-08-06T03:35:18;17.60;77.00
66140;DHT22;52945;51.908;8.364;2023-08-06T03:38:18;17.60;76.90
66140;DHT22;52945;51.908;8.364;2023-08-06T03:41:19;17.60;76.60
66140;DHT22;52945;51.908;8.364;2023-08-06T03:44:19;17.50;76.60
66140;DHT22;52945;51.908;8.364;2023-08-06T03:47:20;17.50;76.40
66140;DHT22;52945;51.908;8.364;2023-08-06T03:50:20;17.40;76.70
66140;DHT22;52945;51.908;8.364;2023-08-06T03:53:21;17.50;76.80
66140;DHT22;52945;51.908;8.364;2023-08-06T03:56:21;17.40;76.80
66140;DHT22;52945;51.908;8.364;2023-08-06T03:59:22;17.50;77.00
66140;DHT22;52945;51.908;8.364;2023-08-06T04:02:22;17.40;77.00
66140;DHT22;52945;51.908;8.364;2023-08-06T04:05:23;17.40;77.10
66140;DHT22;52945;51.908;8.364;2023-08-06T04:08:23;17.40;77.10
66140;DHT22;52945;51.908;8.364;2023-08-06T04:11:24;17.30;76.70
66140;DHT22;52945;51.908;8.364;2023-08-06T04:14:26;17.30;76.50
66140;DHT22;52945;51.908;8.364;2023-08-06T04:17:26;17.40;76.90
66140;DHT22;52945;51.908;8.364;2023-08-06T04:20:27;17.40;76.90
66140;DHT22;52945;51.908;8.364;2023-08-06T04:23:28;17.40;76.80
66140;DHT22;52945;51.908;8.364;2023-08-06T04:26:28;17.40;76.60
66140;DHT22;52945;51.908;8.364;2023-08-06T04:29:29;17.30;76.60
66140;DHT22;52945;51.908;8.364;2023-08-06T04:32:30;17.40;76.70
66140;DHT22;52945;51.908;8.364;2023-08-06T04:35:30;17.40;77.10
66140;DHT22;52945;51.908;8.364;2023-08-06T04:38:31;17.40;76.70
66140;DHT22;52945;51.908;8.364;2023-08-06T04:41:32;17.30;76.90
66140;DHT22;52945;51.908;8.364;2023-08-06T04:44:32;17.40;76.90
66140;DHT22;52945;51.908;8.364;2023-08-06T04:47:33;17.40;77.10
66140;DHT22;52945;51.908;8.364;2023-08-06T04:50:33;17.40;77.40
66140;DHT22;52945;51.908;8.364;2023-08-06T04:53:34;17.40;77.20
66140;DHT22;52945;51.908;8.364;2023-08-06T04:56:34;17.40;77.20
66140;DHT22;52945;51.908;8.364;2023-08-06T04:59:35;17.40;77.20
66140;DHT22;52945;51.908;8.364;2023-08-06T05:02:36;17.40;77.30
66140;DHT22;52945;51.908;8.364;2023-08-06T05:05:40;17.40;77.10
66140;DHT22;52945;51.908;8.364;2023-08-06T05:08:41;17.30;77.10
66140;DHT22;52945;51.908;8.364;2023-08-06T05:11:42;17.30;77.10
66140;DHT22;52945;51.908;8.364;2023-08-06T05:14:42;17.40;77.20
66140;DHT22;52945;51.908;8.364;2023-08-06T05:17:43;17.40;77.10
66140;DHT22;52945;51.908;8.364;2023-08-06T05:20:44;17.30;77.00
66140;DHT22;52945;51.908;8.364;2023-08-06T05:23:45;17.30;77.40
66140;DHT22;52945;51.908;8.364;2023-08-06T05:26:45;17.30;77.30
66140;DHT22;52945;51.908;8.364;2023-08-06T05:29:48;17.30;77.40
66140;DHT22;52945;51.908;8.364;2023-08-06T05:32:48;17.40;77.50
66140;DHT22;52945;51.908;8.364;2023-08-06T05:35:49;17.40;77.60
66140;DHT22;52945;51.908;8.364;2023-08-06T05:38:51;17.40;77.70
66140;DHT22;52945;51.908;8.364;2023-08-06T05:41:51;17.40;77.80
66140;DHT22;52945;51.908;8.364;2023-08-06T05:44:52;17.40;77.60
66140;DHT22;52945;51.908;8.364;2023-08-06T05:47:53;17.40;77.60
66140;DHT22;52945;51.908;8.364;2023-08-06T05:50:58;17.50;77.70
66140;DHT22;52945;51.908;8.364;2023-08-06T05:53:59;17.40;77.30
66140;DHT22;52945;51.908;8.364;2023-08-06T05:56:59;17.40;77.50
66140;DHT22;52945;51.908;8.364;2023-08-06T06:00:00;17.50;77.50
66140;DHT22;52945;51.908;8.364;2023-08-06T06:03:01;17.50;77.50
66140;DHT22;52945;51.908;8.364;2023-08-06T06:06:02;17.60;77.50
66140;DHT22;52945;51.908;8.364;2023-08-06T06:09:03;17.50;77.50
66140;DHT22;52945;51.908;8.364;2023-08-06T06:12:05;17.60;77.50
66140;DHT22;52945;51.908;8.364;2023-08-06T06:15:06;17.60;77.20
66140;DHT22;52945;51.908;8.364;2023-08-06T06:18:06;17.60;77.40
66140;DHT22;52945;51.908;8.364;2023-08-06T06:21:07;17.60;77.40
66140;DHT22;52945;51.908;8.364;2023-08-06T06:24:07;17.70;77.50
66140;DHT22;52945;51.908;8.364;2023-08-06T06:27:08;17.70;77.50
66140;DHT22;52945;51.908;8.364;2023-08-06T06:30:10;17.70;77.60
66140;DHT22;52945;51.908;8.364;2023-08-06T06:33:12;17.70;77.70
66140;DHT22;52945;51.908;8.364;2023-08-06T06:36:13;17.70;77.60
66140;DHT22;52945;51.908;8.364;2023-08-06T06:39:13;17.80;77.70
66140;DHT22;52945;51.908;8.364;2023-08-06T06:42:14;17.80;77.60
66140;DHT22;52945;51.908;8.364;2023-08-06T06:45:15;17.80;77.40
66140;DHT22;52945;51.908;8.364;2023-08-06T06:48:16;17.90;77.40
66140;DHT22;52945;51.908;8.364;2023-08-06T06:51:17;17.90;77.40
66140;DHT22;52945;51.908;8.364;2023-08-06T06:54:17;18.00;77.40
66140;DHT22;52945;51.908;8.364;2023-08-06T06:57:18;18.00;77.30
66140;DHT22;52945;51.908;8.364;2023-08-06T07:00:18;18.10;77.30
66140;DHT22;52945;51.908;8.364;2023-08-06T07:03:20;18.20;77.20
66140;DHT22;52945;51.908;8.364;2023-08-06T07:06:20;18.30;77.20
66140;DHT22;52945;51.908;8.364;2023-08-06T07:09:21;18.30;77.10
66140;DHT22;52945;51.908;8.364;2023-08-06T07:12:21;18.40;77.10
66140;DHT22;52945;51.908;8.364;2023-08-06T07:15:22;18.40;76.90
66140;DHT22;52945;51.908;8.364;2023-08-06T07:18:23;18.50;76.80
66140;DHT22;52945;51.908;8.364;2023-08-06T07:21:24;18.60;77.00
66140;DHT22;52945;51.908;8.364;2023-08-06T07:24:24;18.70;76.80
66140;DHT22;52945;51.908;8.364;2023-08-06T07:27:25;18.70;77.00
66140;DHT22;52945;51.908;8.364;2023-08-06T07:30:26;18.80;77.00
66140;DHT22;52945;51.908;8.364;2023-08-06T07:33:26;18.90;76.50
66140;DHT22;52945;51.908;8.364;2023-08-06T07:36:27;18.90;76.40
66140;DHT22;52945;51.908;8.364;2023-08-06T07:39:27;19.10;76.40
66140;DHT22;52945;51.908;8.364;2023-08-06T07:42:29;19.10;76.50
66140;DHT22;52945;51.908;8.364;2023-08-06T07:45:33;19.20;76.10
66140;DHT22;52945;51.908;8.364;2023-08-06T07:48:34;19.20;75.40
66140;DHT22;52945;51.908;8.364;2023-08-06T07:51:35;19.30;75.40
66140;DHT22;52945;51.908;8.364;2023-08-06T07:54:35;19.30;75.20
66140;DHT22;52945;51.908;8.364;2023-08-06T07:57:36;19.40;75.30
66140;DHT22;52945;51.908;8.364;2023-08-06T08:00:38;19.40;74.90
66140;DHT22;52945;51.908;8.364;2023-08-06T08:03:39;19.50;74.30
66140;DHT22;52945;51.908;8.364;2023-08-06T08:06:39;19.50;74.40
66140;DHT22;52945;51.908;8.364;2023-08-06T08:09:40;19.60;74.20
66140;DHT22;52945;51.908;8.364;2023-08-06T08:12:40;19.70;73.20
66140;DHT22;52945;51.908;8.364;2023-08-06T08:15:41;19.80;72.20
66140;DHT22;52945;51.908;8.364;2023-08-06T08:18:42;19.90;72.10
66140;DHT22;52945;51.908;8.364;2023-08-06T08:21:42;20.00;72.60
66140;DHT22;52945;51.908;8.364;2023-08-06T08:24:43;20.10;72.20
66140;DHT22;52945;51.908;8.364;2023-08-06T08:27:43;20.10;71.10
66140;DHT22;52945;51.908;8.364;2023-08-06T08:30:44;20.20;70.50
66140;DHT22;52945;51.908;8.364;2023-08-06T08:33:44;20.20;71.60
66140;DHT22;52945;51.908;8.364;2023-08-06T08:36:45;20.30;71.70
66140;DHT22;52945;51.908;8.364;2023-08-06T08:39:50;20.40;72.00
66140;DHT22;52945;51.908;8.364;2023-08-06T08:42:50;20.40;71.40
66140;DHT22;52945;51.908;8.364;2023-08-06T08:45:52;20.40;71.20
66140;DHT22;52945;51.908;8.364;2023-08-06T08:48:55;20.40;69.90
66140;DHT22;52945;51.908;8.364;2023-08-06T08:51:59;20.50;69.90
66140;DHT22;52945;51.908;8.364;2023-08-06T08:55:01;20.60;69.70
66140;DHT22;52945;51.908;8.364;2023-08-06T08:58:02;20.60;68.90
66140;DHT22;52945;51.908;8.364;2023-08-06T09:01:03;20.70;68.10
66140;DHT22;52945;51.908;8.364;2023-08-06T09:04:04;20.70;68.80
66140;DHT22;52945;51.908;8.364;2023-08-06T09:07:07;20.70;69.10
66140;DHT22;52945;51.908;8.364;2023-08-06T09:10:11;20.80;68.30
66140;DHT22;52945;51.908;8.364;2023-08-06T09:13:16;20.80;68.00
66140;DHT22;52945;51.908;8.364;2023-08-06T09:16:16;20.80;67.80
66140;DHT22;52945;51.908;8.364;2023-08-06T09:19:17;20.80;67.80
66140;DHT22;52945;51.908;8.364;2023-08-06T09:22:18;20.70;68.20
66140;DHT22;52945;51.908;8.364;2023-08-06T09:25:24;20.80;68.20
66140;DHT22;52945;51.908;8.364;2023-08-06T09:28:37;20.90;68.70
66140;DHT22;52945;51.908;8.364;2023-08-06T09:31:40;21.00;69.30
66140;DHT22;52945;51.908;8.364;2023-08-06T09:34:46;21.10;67.60
66140;DHT22;52945;51.908;8.364;2023-08-06T09:37:46;21.10;67.40
66140;DHT22;52945;51.908;8.364;2023-08-06T09:40:47;21.20;67.50
66140;DHT22;52945;51.908;8.364;2023-08-06T09:43:47;21.30;66.90
66140;DHT22;52945;51.908;8.364;2023-08-06T09:46:48;21.30;67.40
66140;DHT22;52945;51.908;8.364;2023-08-06T09:49:50;21.20;66.30
66140;DHT22;52945;51.908;8.364;2023-08-06T09:52:52;21.30;66.20
66140;DHT22;52945;51.908;8.364;2023-08-06T09:55:53;21.30;65.50
66140;DHT22;52945;51.908;8.364;2023-08-06T09:58:55;21.30;66.00
66140;DHT22;52945;51.908;8.364;2023-08-06T10:01:58;21.30;65.50
66140;DHT22;52945;51.908;8.364;2023-08-06T10:04:59;21.40;65.30
66140;DHT22;52945;51.908;8.364;2023-08-06T10:08:01;21.60;65.60
66140;DHT22;52945;51.908;8.364;2023-08-06T10:11:03;21.70;64.40
66140;DHT22;52945;51.908;8.364;2023-08-06T10:14:16;21.70;65.70
66140;DHT22;52945;51.908;8.364;2023-08-06T10:17:18;21.80;63.80
66140;DHT22;52945;51.908;8.364;2023-08-06T10:20:19;21.80;63.50
66140;DHT22;52945;51.908;8.364;2023-08-06T10:23:33;21.80;63.20
66140;DHT22;52945;51.908;8.364;2023-08-06T10:26:34;21.80;64.30
66140;DHT22;52945;51.908;8.364;2023-08-06T10:29:36;21.90;64.60
66140;DHT22;52945;51.908;8.364;2023-08-06T10:32:46;21.90;63.60
66140;DHT22;52945;51.908;8.364;2023-08-06T10:35:48;22.00;63.10
66140;DHT22;52945;51.908;8.364;2023-08-06T10:38:57;22.00;63.80
66140;DHT22;52945;51.908;8.364;2023-08-06T10:41:58;22.00;64.30
66140;DHT22;52945;51.908;8.364;2023-08-06T10:45:12;22.00;65.20
66140;DHT22;52945;51.908;8.364;2023-08-06T10:48:29;22.00;65.20
66140;DHT22;52945;51.908;8.364;2023-08-06T10:51:30;22.10;63.90
66140;DHT22;52945;51.908;8.364;2023-08-06T10:54:31;22.10;63.90
66140;DHT22;52945;51.908;8.364;2023-08-06T10:57:31;22.10;64.40
66140;DHT22;52945;51.908;8.364;2023-08-06T11:00:33;22.20;64.40
66140;DHT22;52945;51.908;8.364;2023-08-06T11:03:33;22.20;64.10
66140;DHT22;52945;51.908;8.364;2023-08-06T11:06:34;22.20;63.60
66140;DHT22;52945;51.908;8.364;2023-08-06T11:09:35;22.30;64.40
66140;DHT22;52945;51.908;8.364;2023-08-06T11:12:36;22.40;64.10
66140;DHT22;52945;51.908;8.364;2023-08-06T11:15:36;22.40;64.80
66140;DHT22;52945;51.908;8.364;2023-08-06T11:18:37;22.40;64.10
66140;DHT22;52945;51.908;8.364;2023-08-06T11:21:39;22.40;63.10
66140;DHT22;52945;51.908;8.364;2023-08-06T11:24:40;22.40;63.70
66140;DHT22;52945;51.908;8.364;2023-08-06T11:27:40;22.40;64.20
66140;DHT22;52945;51.908;8.364;2023-08-06T11:30:41;22.40;63.80
66140;DHT22;52945;51.908;8.364;2023-08-06T11:33:41;22.30;63.60
66140;DHT22;52945;51.908;8.364;2023-08-06T11:36:42;22.30;62.90
66140;DHT22;52945;51.908;8.364;2023-08-06T11:39:47;22.30;63.90
66140;DHT22;52945;51.908;8.364;2023-08-06T11:42:50;22.30;64.00
66140;DHT22;52945;51.908;8.364;2023-08-06T11:45:51;22.20;63.90
66140;DHT22;52945;51.908;8.364;2023-08-06T11:48:56;22.20;63.50
66140;DHT22;52945;51.908;8.364;2023-08-06T11:51:57;22.20;63.20
66140;DHT22;52945;51.908;8.364;2023-08-06T11:55:04;22.20;63.70
66140;DHT22;52945;51.908;8.364;2023-08-06T11:58:11;22.20;65.30
66140;DHT22;52945;51.908;8.364;2023-08-06T12:01:13;22.20;66.20
66140;DHT22;52945;51.908;8.364;2023-08-06T12:04:14;22.20;66.60
66140;DHT22;52945;51.908;8.364;2023-08-06T12:07:16;22.10;66.60
66140;DHT22;52945;51.908;8.364;2023-08-06T12:10:19;22.00;66.60
66140;DHT22;52945;51.908;8.364;2023-08-06T12:13:22;22.00;67.40
66140;DHT22;52945;51.908;8.364;2023-08-06T12:16:23;22.00;67.20
66140;DHT22;52945;51.908;8.364;2023-08-06T12:19:24;21.90;66.40
66140;DHT22;52945;51.908;8.364;2023-08-06T12:22:25;21.90;66.70
66140;DHT22;52945;51.908;8.364;2023-08-06T12:25:25;21.90;66.90
66140;DHT22;52945;51.908;8.364;2023-08-06T12:28:26;22.00;67.70
66140;DHT22;52945;51.908;8.364;2023-08-06T12:31:26;22.00;67.80
66140;DHT22;52945;51.908;8.364;2023-08-06T12:34:27;22.00;68.50
66140;DHT22;52945;51.908;8.364;2023-08-06T12:37:28;22.10;67.20
66140;DHT22;52945;51.908;8.364;2023-08-06T12:40:29;22.00;67.00
66140;DHT22;52945;51.908;8.364;2023-08-06T12:43:29;22.00;68.20
66140;DHT22;52945;51.908;8.364;2023-08-06T12:46:31;22.00;68.60
66140;DHT22;52945;51.908;8.364;2023-08-06T12:49:31;21.90;68.20
66140;DHT22;52945;51.908;8.364;2023-08-06T12:52:33;21.90;67.80
66140;DHT22;52945;51.908;8.364;2023-08-06T12:55:34;21.90;68.10
66140;DHT22;52945;51.908;8.364;2023-08-06T12:58:34;21.80;68.50
66140;DHT22;52945;51.908;8.364;2023-08-06T13:01:36;21.80;69.00
66140;DHT22;52945;51.908;8.364;2023-08-06T13:04:37;21.80;68.80
66140;DHT22;52945;51.908;8.364;2023-08-06T13:07:38;21.80;69.10
66140;DHT22;52945;51.908;8.364;2023-08-06T13:10:38;21.70;68.80
66140;DHT22;52945;51.908;8.364;2023-08-06T13:13:39;21.60;68.70
66140;DHT22;52945;51.908;8.364;2023-08-06T13:16:43;21.50;68.60
66140;DHT22;52945;51.908;8.364;2023-08-06T13:19:45;21.30;69.30
66140;DHT22;52945;51.908;8.364;2023-08-06T13:22:45;21.20;69.80
66140;DHT22;52945;51.908;8.364;2023-08-06T13:25:46;21.10;70.30
66140;DHT22;52945;51.908;8.364;2023-08-06T13:28:47;21.00;70.90
66140;DHT22;52945;51.908;8.364;2023-08-06T13:31:49;20.90;71.40
66140;DHT22;52945;51.908;8.364;2023-08-06T13:34:50;20.90;72.80
66140;DHT22;52945;51.908;8.364;2023-08-06T13:37:50;21.00;73.80
66140;DHT22;52945;51.908;8.364;2023-08-06T13:40:51;20.90;73.90
66140;DHT22;52945;51.908;8.364;2023-08-06T13:43:51;20.90;74.30
66140;DHT22;52945;51.908;8.364;2023-08-06T13:46:52;20.90;73.50
66140;DHT22;52945;51.908;8.364;2023-08-06T13:49:52;20.90;73.00
66140;DHT22;52945;51.908;8.364;2023-08-06T13:52:53;20.80;72.10
66140;DHT22;52945;51.908;8.364;2023-08-06T13:55:56;20.80;72.50
66140;DHT22;52945;51.908;8.364;2023-08-06T13:58:59;20.80;72.60
66140;DHT22;52945;51.908;8.364;2023-08-06T14:02:00;20.80;73.70
66140;DHT22;52945;51.908;8.364;2023-08-06T14:05:01;20.80;72.90
66140;DHT22;52945;51.908;8.364;2023-08-06T14:08:01;20.80;72.60
66140;DHT22;52945;51.908;8.364;2023-08-06T14:11:02;20.80;72.30
66140;DHT22;52945;51.908;8.364;2023-08-06T14:14:02;20.70;72.60
66140;DHT22;52945;51.908;8.364;2023-08-06T14:17:03;20.70;73.40
66140;DHT22;52945;51.908;8.364;2023-08-06T14:20:04;20.80;73.70
66140;DHT22;52945;51.908;8.364;2023-08-06T14:23:07;20.80;74.30
66140;DHT22;52945;51.908;8.364;2023-08-06T14:26:08;20.80;74.50
66140;DHT22;52945;51.908;8.364;2023-08-06T14:29:11;20.70;74.60
66140;DHT22;52945;51.908;8.364;2023-08-06T14:32:12;20.70;74.80
66140;DHT22;52945;51.908;8.364;2023-08-06T14:35:12;20.70;74.00
66140;DHT22;52945;51.908;8.364;2023-08-06T14:38:13;20.60;73.70
66140;DHT22;52945;51.908;8.364;2023-08-06T14:41:13;20.60;74.20
66140;DHT22;52945;51.908;8.364;2023-08-06T14:44:14;20.60;74.70
66140;DHT22;52945;51.908;8.364;2023-08-06T14:47:14;20.60;75.50
66140;DHT22;52945;51.908;8.364;2023-08-06T14:50:15;20.60;75.80
66140;DHT22;52945;51.908;8.364;2023-08-06T14:53:16;20.60;76.20
66140;DHT22;52945;51.908;8.364;2023-08-06T14:56:16;20.60;76.40
66140;DHT22;52945;51.908;8.364;2023-08-06T14:59:17;20.70;77.20
66140;DHT22;52945;51.908;8.364;2023-08-06T15:02:17;20.70;77.70
66140;DHT22;52945;51.908;8.364;2023-08-06T15:05:18;20.70;77.30
66140;DHT22;52945;51.908;8.364;2023-08-06T15:08:18;20.70;77.10
66140;DHT22;52945;51.908;8.364;2023-08-06T15:11:19;20.60;76.90
66140;DHT22;52945;51.908;8.364;2023-08-06T15:14:20;20.70;76.80
66140;DHT22;52945;51.908;8.364;2023-08-06T15:17:20;20.70;76.50
66140;DHT22;52945;51.908;8.364;2023-08-06T15:20:22;20.70;76.50
66140;DHT22;52945;51.908;8.364;2023-08-06T15:23:24;20.70;76.50
66140;DHT22;52945;51.908;8.364;2023-08-06T15:26:25;20.70;76.50
66140;DHT22;52945;51.908;8.364;2023-08-06T15:29:25;20.70;76.50
66140;DHT22;52945;51.908;8.364;2023-08-06T15:32:26;20.70;76.40
66140;DHT22;52945;51.908;8.364;2023-08-06T15:35:27;20.70;75.50
66140;DHT22;52945;51.908;8.364;2023-08-06T15:38:28;20.60;74.60
66140;DHT22;52945;51.908;8.364;2023-08-06T15:41:29;20.50;74.80
66140;DHT22;52945;51.908;8.364;2023-08-06T15:44:29;20.40;74.10
66140;DHT22;52945;51.908;8.364;2023-08-06T15:47:30;20.30;74.40
66140;DHT22;52945;51.908;8.364;2023-08-06T15:50:31;20.20;75.00
66140;DHT22;52945;51.908;8.364;2023-08-06T15:53:32;20.10;75.20
66140;DHT22;52945;51.908;8.364;2023-08-06T15:56:33;20.10;75.60
66140;DHT22;52945;51.908;8.364;2023-08-06T15:59:34;20.00;75.70
66140;DHT22;52945;51.908;8.364;2023-08-06T16:02:34;19.90;75.80
66140;DHT22;52945;51.908;8.364;2023-08-06T16:05:35;19.70;75.90
66140;DHT22;52945;51.908;8.364;2023-08-06T16:08:36;19.70;75.80
66140;DHT22;52945;51.908;8.364;2023-08-06T16:11:37;19.50;76.30
66140;DHT22;52945;51.908;8.364;2023-08-06T16:14:37;19.40;77.00
66140;DHT22;52945;51.908;8.364;2023-08-06T16:17:39;19.40;77.00
66140;DHT22;52945;51.908;8.364;2023-08-06T16:20:42;19.30;77.70
66140;DHT22;52945;51.908;8.364;2023-08-06T16:23:43;19.30;77.90
66140;DHT22;52945;51.908;8.364;2023-08-06T16:26:44;19.20;78.20
66140;DHT22;52945;51.908;8.364;2023-08-06T16:29:44;19.20;78.80
66140;DHT22;52945;51.908;8.364;2023-08-06T16:32:46;19.20;79.10
66140;DHT22;52945;51.908;8.364;2023-08-06T16:35:46;19.20;79.10
66140;DHT22;52945;51.908;8.364;2023-08-06T16:38:47;19.20;79.60
66140;DHT22;52945;51.908;8.364;2023-08-06T16:41:48;19.20;79.80
66140;DHT22;52945;51.908;8.364;2023-08-06T16:44:48;19.10;79.40
66140;DHT22;52945;51.908;8.364;2023-08-06T16:47:49;19.00;78.90
66140;DHT22;52945;51.908;8.364;2023-08-06T16:50:50;18.90;78.90
66140;DHT22;52945;51.908;8.364;2023-08-06T16:53:50;18.90;79.20
66140;DHT22;52945;51.908;8.364;2023-08-06T16:56:51;18.90;80.30
66140;DHT22;52945;51.908;8.364;2023-08-06T16:59:51;18.90;80.10
66140;DHT22;52945;51.908;8.364;2023-08-06T17:02:52;18.80;79.40
66140;DHT22;52945;51.908;8.364;2023-08-06T17:05:52;18.70;79.40
66140;DHT22;52945;51.908;8.364;2023-08-06T17:08:53;18.70;79.50
66140;DHT22;52945;51.908;8.364;2023-08-06T17:11:53;18.60;79.00
66140;DHT22;52945;51.908;8.364;2023-08-06T17:14:54;18.40;78.80
66140;DHT22;52945;51.908;8.364;2023-08-06T17:17:55;18.30;79.80
66140;DHT22;52945;51.908;8.364;2023-08-06T17:20:55;18.30;79.90
66140;DHT22;52945;51.908;8.364;2023-08-06T17:23:56;18.20;79.70
66140;DHT22;52945;51.908;8.364;2023-08-06T17:26:57;18.20;80.40
66140;DHT22;52945;51.908;8.364;2023-08-06T17:29:59;18.20;80.60
66140;DHT22;52945;51.908;8.364;2023-08-06T17:32:59;18.20;80.80
66140;DHT22;52945;51.908;8.364;2023-08-06T17:36:00;18.20;80.40
66140;DHT22;52945;51.908;8.364;2023-08-06T17:39:00;18.20;80.90
66140;DHT22;52945;51.908;8.364;2023-08-06T17:42:01;18.20;81.10
66140;DHT22;52945;51.908;8.364;2023-08-06T17:45:07;18.20;80.70
66140;DHT22;52945;51.908;8.364;2023-08-06T17:48:07;18.20;81.00
66140;DHT22;52945;51.908;8.364;2023-08-06T17:51:08;18.20;81.30
66140;DHT22;52945;51.908;8.364;2023-08-06T17:54:08;18.20;81.20
66140;DHT22;52945;51.908;8.364;2023-08-06T17:57:09;18.20;81.00
66140;DHT22;52945;51.908;8.364;2023-08-06T18:00:09;18.20;80.80
66140;DHT22;52945;51.908;8.364;2023-08-06T18:03:10;18.20;80.50
66140;DHT22;52945;51.908;8.364;2023-08-06T18:06:11;18.20;80.90
66140;DHT22;52945;51.908;8.364;2023-08-06T18:09:11;18.20;81.00
66140;DHT22;52945;51.908;8.364;2023-08-06T18:12:12;18.20;80.80
66140;DHT22;52945;51.908;8.364;2023-08-06T18:15:12;18.10;80.70
66140;DHT22;52945;51.908;8.364;2023-08-06T18:18:13;18.10;80.80
66140;DHT22;52945;51.908;8.364;2023-08-06T18:21:14;18.00;80.60
66140;DHT22;52945;51.908;8.364;2023-08-06T18:24:14;18.00;80.60
66140;DHT22;52945;51.908;8.364;2023-08-06T18:27:15;18.00;80.60
66140;DHT22;52945;51.908;8.364;2023-08-06T18:30:18;18.00;80.60
66140;DHT22;52945;51.908;8.364;2023-08-06T18:33:18;17.90;80.60
66140;DHT22;52945;51.908;8.364;2023-08-06T18:36:19;17.90;80.90
66140;DHT22;52945;51.908;8.364;2023-08-06T18:39:19;17.80;80.90
66140;DHT22;52945;51.908;8.364;2023-08-06T18:42:20;17.80;80.80
66140;DHT22;52945;51.908;8.364;2023-08-06T18:45:20;17.80;80.90
66140;DHT22;52945;51.908;8.364;2023-08-06T18:48:21;17.70;80.90
66140;DHT22;52945;51.908;8.364;2023-08-06T18:51:21;17.80;81.10
66140;DHT22;52945;51.908;8.364;2023-08-06T18:54:22;17.70;81.10
66140;DHT22;52945;51.908;8.364;2023-08-06T18:57:23;17.60;81.20
66140;DHT22;52945;51.908;8.364;2023-08-06T19:00:24;17.60;81.50
66140;DHT22;52945;51.908;8.364;2023-08-06T19:03:24;17.60;81.50
66140;DHT22;52945;51.908;8.364;2023-08-06T19:06:25;17.70;81.70
66140;DHT22;52945;51.908;8.364;2023-08-06T19:09:29;17.70;81.70